Time;durP1;ratioP1;P1;durP2;ratioP2;P2;SDS_P1;SDS_P2;PMS_P1;PMS_P2;Temp;Humidity;BMP_temperature;BMP_pressure;BME280_temperature;BME280_humidity;BME280_pressure;Samples;Min_cycle;Max_cycle;Signal;HPM_P1;HPM_P2
2023/07/03 00:02:44;;;;;;;9.87;6.93;;;;;;;;;;6213366;28;20057;-75
2023/07/03 00:05:45;;;;;;;12.73;7.53;;;;;;;;;;6207753;28;20021;-75
2023/07/03 00:08:45;;;;;;;12.40;6.87;;;;;;;;;;6227719;28;20108;-76
2023/07/03 00:11:45;;;;;;;13.03;7.10;;;;;;;;;;6222969;28;20029;-75
2023/07/03 00:14:45;;;;;;;12.98;8.10;;;;;;;;;;6217183;28;20022;-80
2023/07/03 00:17:46;;;;;;;10.77;7.47;;;;;;;;;;6219873;28;20021;-80
2023/07/03 00:20:46;;;;;;;14.40;7.87;;;;;;;;;;6219559;28;20022;-81
2023/07/03 00:23:46;;;;;;;12.27;7.03;;;;;;;;;;6219613;28;20025;-81
2023/07/03 00:26:46;;;;;;;10.20;7.97;;;;;;;;;;6195979;28;20022;-80
2023/07/03 00:29:48;;;;;;;13.25;7.55;;;;;;;;;;6219627;28;20089;-80
2023/07/03 00:32:48;;;;;;;10.57;7.27;;;;;;;;;;6215859;28;20419;-80
2023/07/03 00:35:48;;;;;;;11.03;7.40;;;;;;;;;;6198214;28;20104;-82
2023/07/03 00:38:48;;;;;;;11.97;7.93;;;;;;;;;;6216329;28;20080;-81
2023/07/03 00:41:49;;;;;;;14.98;8.00;;;;;;;;;;6219398;28;20172;-80
2023/07/03 00:44:49;;;;;;;11.30;7.33;;;;;;;;;;6216328;28;20038;-80
2023/07/03 00:47:51;;;;;;;11.17;8.63;;;;;;;;;;6218687;28;20033;-81
2023/07/03 00:50:51;;;;;;;;;;;;;;;;;;6219890;28;20010;-81
2023/07/03 00:53:51;;;;;;;15.45;8.23;;;;;;;;;;6219095;28;19917;-75
2023/07/03 00:56:51;;;;;;;13.47;8.53;;;;;;;;;;6213817;28;20100;-75
2023/07/03 00:59:51;;;;;;;12.45;8.40;;;;;;;;;;6212241;28;20100;-75
2023/07/03 01:03:04;;;;;;;12.10;9.07;;;;;;;;;;6218611;28;20483;-75
2023/07/03 01:06:06;;;;;;;11.73;9.13;;;;;;;;;;6218732;28;20499;-76
2023/07/03 01:09:08;;;;;;;16.85;8.52;;;;;;;;;;6196182;28;20006;-75
2023/07/03 01:12:09;;;;;;;12.02;8.98;;;;;;;;;;6218620;28;20033;-77
2023/07/03 01:15:11;;;;;;;12.77;8.85;;;;;;;;;;6218881;28;20018;-76
2023/07/03 01:18:11;;;;;;;11.55;7.88;;;;;;;;;;6218324;28;20042;-76
2023/07/03 01:21:16;;;;;;;12.15;7.75;;;;;;;;;;6217627;28;20014;-75
2023/07/03 01:24:36;;;;;;;11.93;8.23;;;;;;;;;;6193403;28;20513;-76
2023/07/03 01:27:38;;;;;;;12.85;8.20;;;;;;;;;;6217638;28;20748;-76
2023/07/03 01:30:40;;;;;;;11.57;7.57;;;;;;;;;;6215042;28;20026;-76
2023/07/03 01:33:44;;;;;;;14.25;8.68;;;;;;;;;;6218199;28;20022;-76
2023/07/03 01:36:44;;;;;;;12.45;9.05;;;;;;;;;;6217315;28;20032;-76
2023/07/03 01:39:45;;;;;;;12.70;8.23;;;;;;;;;;6217956;28;20030;-76
2023/07/03 01:42:45;;;;;;;10.90;8.43;;;;;;;;;;6217910;28;20009;-76
2023/07/03 01:45:47;;;;;;;11.33;7.77;;;;;;;;;;6218528;28;20419;-76
2023/07/03 01:48:48;;;;;;;13.15;8.60;;;;;;;;;;6219017;28;20018;-76
2023/07/03 01:51:57;;;;;;;12.10;8.10;;;;;;;;;;6217876;28;20017;-76
2023/07/03 01:55:20;;;;;;;14.02;9.32;;;;;;;;;;6200295;28;20021;-76
2023/07/03 01:58:32;;;;;;;12.32;7.95;;;;;;;;;;6217094;28;20032;-77
2023/07/03 02:01:55;;;;;;;13.18;8.68;;;;;;;;;;6217914;28;20773;-75
2023/07/03 02:05:04;;;;;;;11.27;8.10;;;;;;;;;;6178492;28;20037;-79
2023/07/03 02:08:05;;;;;;;13.30;8.82;;;;;;;;;;6218343;28;20026;-80
2023/07/03 02:11:12;;;;;;;11.73;9.27;;;;;;;;;;6217565;28;20064;-79
2023/07/03 02:14:12;;;;;;;10.70;8.13;;;;;;;;;;6217552;28;20279;-80
2023/07/03 02:17:12;;;;;;;14.07;8.27;;;;;;;;;;6218118;28;20018;-80
2023/07/03 02:20:16;;;;;;;13.13;9.15;;;;;;;;;;6217149;28;20026;-80
2023/07/03 02:23:16;;;;;;;13.80;8.05;;;;;;;;;;6217755;28;20025;-81
2023/07/03 02:26:17;;;;;;;12.05;7.93;;;;;;;;;;6219737;28;20021;-80
2023/07/03 02:29:17;;;;;;;13.47;8.37;;;;;;;;;;6222933;28;20081;-80
2023/07/03 02:32:17;;;;;;;11.30;7.23;;;;;;;;;;6221936;28;20030;-80
2023/07/03 02:35:19;;;;;;;10.90;7.90;;;;;;;;;;6219395;28;20423;-80
2023/07/03 02:38:19;;;;;;;10.45;7.88;;;;;;;;;;6219269;28;20025;-77
2023/07/03 02:41:22;;;;;;;11.68;8.40;;;;;;;;;;6221007;28;20775;-81
2023/07/03 02:44:23;;;;;;;11.82;7.28;;;;;;;;;;6220418;28;20765;-82
2023/07/03 02:47:23;;;;;;;12.13;8.40;;;;;;;;;;6220620;28;20014;-81
2023/07/03 02:50:23;;;;;;;11.63;7.53;;;;;;;;;;6223891;28;20029;-80
2023/07/03 02:53:24;;;;;;;11.05;7.68;;;;;;;;;;6219826;28;20057;-80
2023/07/03 02:56:24;;;;;;;12.70;7.97;;;;;;;;;;6221681;28;20021;-82
2023/07/03 02:59:25;;;;;;;12.17;8.50;;;;;;;;;;6221742;28;20037;-80
2023/07/03 03:02:26;;;;;;;11.83;8.80;;;;;;;;;;6221717;28;20018;-82
2023/07/03 03:05:27;;;;;;;12.27;7.90;;;;;;;;;;6221277;28;20365;-82
2023/07/03 03:08:27;;;;;;;14.03;9.37;;;;;;;;;;6221241;28;20022;-81
2023/07/03 03:11:28;;;;;;;12.60;8.87;;;;;;;;;;6220681;28;20380;-82
2023/07/03 03:14:28;;;;;;;13.87;10.23;;;;;;;;;;6221219;28;20018;-82
2023/07/03 03:17:28;;;;;;;13.27;10.23;;;;;;;;;;6221541;28;20032;-82
2023/07/03 03:20:28;;;;;;;14.60;9.47;;;;;;;;;;6217127;28;20030;-81
2023/07/03 03:23:28;;;;;;;12.32;9.07;;;;;;;;;;6221316;28;20741;-81
2023/07/03 03:26:29;;;;;;;14.48;9.30;;;;;;;;;;6220982;28;20095;-81
2023/07/03 03:29:29;;;;;;;16.43;8.53;;;;;;;;;;6221710;28;20531;-82
2023/07/03 03:32:29;;;;;;;14.98;9.77;;;;;;;;;;6220606;28;20576;-83
2023/07/03 03:35:29;;;;;;;13.07;9.67;;;;;;;;;;6199824;28;20022;-82
2023/07/03 03:38:29;;;;;;;14.27;9.20;;;;;;;;;;6213664;28;20620;-82
2023/07/03 03:41:30;;;;;;;14.48;9.73;;;;;;;;;;6221318;28;20026;-81
2023/07/03 03:44:30;;;;;;;15.03;10.33;;;;;;;;;;6220319;28;20449;-76
2023/07/03 03:47:30;;;;;;;14.40;9.52;;;;;;;;;;6220715;28;20025;-76
2023/07/03 03:50:30;;;;;;;16.10;10.13;;;;;;;;;;6220724;28;20045;-76
2023/07/03 03:53:31;;;;;;;14.30;9.13;;;;;;;;;;6221081;28;20018;-76
2023/07/03 03:56:31;;;;;;;16.07;10.30;;;;;;;;;;6219377;28;20084;-76
2023/07/03 03:59:31;;;;;;;16.43;9.57;;;;;;;;;;6220284;28;20048;-76
2023/07/03 04:02:31;;;;;;;13.40;8.63;;;;;;;;;;6199871;28;20109;-76
2023/07/03 04:05:31;;;;;;;14.32;8.70;;;;;;;;;;6215196;28;20056;-76
2023/07/03 04:08:32;;;;;;;11.80;7.87;;;;;;;;;;6211760;28;20022;-77
2023/07/03 04:11:32;;;;;;;17.37;9.77;;;;;;;;;;6215942;28;20006;-76
2023/07/03 04:14:33;;;;;;;16.90;9.67;;;;;;;;;;6219859;28;20135;-76
2023/07/03 04:17:33;;;;;;;13.60;10.23;;;;;;;;;;6217066;28;20783;-76
2023/07/03 04:20:33;;;;;;;15.50;9.87;;;;;;;;;;6218656;28;20101;-73
2023/07/03 04:23:34;;;;;;;16.33;10.63;;;;;;;;;;6219547;28;20029;-74
2023/07/03 04:26:36;;;;;;;16.83;10.23;;;;;;;;;;6219698;28;20017;-74
2023/07/03 04:29:38;;;;;;;20.77;12.30;;;;;;;;;;6229867;28;20049;-75
2023/07/03 04:32:38;;;;;;;16.48;11.70;;;;;;;;;;6243217;28;20483;-75
2023/07/03 04:35:39;;;;;;;15.60;10.67;;;;;;;;;;6244188;28;20017;-75
2023/07/03 04:38:41;;;;;;;14.53;10.57;;;;;;;;;;6244132;28;20022;-76
2023/07/03 04:41:42;;;;;;;13.88;10.30;;;;;;;;;;6244363;28;20396;-75
2023/07/03 04:44:43;;;;;;;17.53;10.93;;;;;;;;;;6243899;28;20014;-75
2023/07/03 04:47:43;;;;;;;14.43;9.43;;;;;;;;;;6243565;28;20022;-75
2023/07/03 04:50:45;;;;;;;14.40;9.77;;;;;;;;;;6240861;28;20018;-75
2023/07/03 04:53:48;;;;;;;15.98;9.75;;;;;;;;;;6243491;28;20029;-80
2023/07/03 04:56:48;;;;;;;14.55;10.63;;;;;;;;;;6244063;28;20041;-81
2023/07/03 04:59:49;;;;;;;14.80;10.10;;;;;;;;;;6243496;28;20383;-81
2023/07/03 05:02:51;;;;;;;11.63;8.73;;;;;;;;;;6240776;28;20030;-80
2023/07/03 05:05:52;;;;;;;18.83;10.55;;;;;;;;;;6243434;28;20032;-80
2023/07/03 05:08:54;;;;;;;18.25;10.95;;;;;;;;;;6230836;28;20093;-82
2023/07/03 05:11:54;;;;;;;14.27;9.95;;;;;;;;;;6243061;28;20506;-81
2023/07/03 05:14:54;;;;;;;11.00;7.75;;;;;;;;;;6245984;28;20021;-80
2023/07/03 05:17:55;;;;;;;12.63;7.40;;;;;;;;;;6242222;28;20118;-81
2023/07/03 05:20:55;;;;;;;13.30;7.73;;;;;;;;;;6241963;28;20025;-81
2023/07/03 05:23:56;;;;;;;14.83;8.30;;;;;;;;;;6242484;28;20029;-81
2023/07/03 05:26:56;;;;;;;13.80;7.38;;;;;;;;;;6237435;28;20024;-81
2023/07/03 05:29:57;;;;;;;13.93;7.05;;;;;;;;;;6217354;28;20046;-80
2023/07/03 05:32:58;;;;;;;11.48;6.43;;;;;;;;;;6217259;28;20013;-81
2023/07/03 05:35:59;;;;;;;9.40;6.50;;;;;;;;;;6218360;28;20477;-81
2023/07/03 05:38:59;;;;;;;13.15;6.93;;;;;;;;;;6217495;28;20042;-80
2023/07/03 05:41:59;;;;;;;9.95;5.28;;;;;;;;;;6217851;28;20040;-80
2023/07/03 05:45:00;;;;;;;11.57;6.77;;;;;;;;;;6214121;28;20106;-79
2023/07/03 05:48:00;;;;;;;9.17;6.03;;;;;;;;;;6199932;28;20029;-80
2023/07/03 05:51:00;;;;;;;9.13;4.73;;;;;;;;;;6215479;28;20713;-80
2023/07/03 05:54:00;;;;;;;9.23;5.30;;;;;;;;;;6214375;28;20109;-80
2023/07/03 05:57:09;;;;;;;7.90;4.70;;;;;;;;;;6198289;28;20033;-80
2023/07/03 06:00:15;;;;;;;9.55;5.28;;;;;;;;;;6216170;28;20033;-80
2023/07/03 06:03:16;;;;;;;8.63;5.18;;;;;;;;;;6200084;28;20195;-81
2023/07/03 06:06:16;;;;;;;10.35;5.28;;;;;;;;;;6218268;28;20010;-79
2023/07/03 06:09:18;;;;;;;7.47;4.40;;;;;;;;;;6218223;28;20045;-80
2023/07/03 06:12:18;;;;;;;9.43;4.65;;;;;;;;;;6216436;28;20373;-76
2023/07/03 06:15:18;;;;;;;10.88;5.07;;;;;;;;;;6212845;28;20053;-77
2023/07/03 06:18:19;;;;;;;7.80;4.57;;;;;;;;;;6217768;28;20024;-76
2023/07/03 06:21:19;;;;;;;11.37;5.23;;;;;;;;;;6199563;28;20063;-76
2023/07/03 06:24:19;;;;;;;9.80;4.90;;;;;;;;;;6217432;28;20105;-77
2023/07/03 06:27:19;;;;;;;7.20;4.50;;;;;;;;;;6210721;28;20018;-76
2023/07/03 06:30:20;;;;;;;8.63;4.20;;;;;;;;;;6216372;28;20045;-76
2023/07/03 06:33:20;;;;;;;9.87;4.30;;;;;;;;;;6215900;28;20017;-76
2023/07/03 06:36:23;;;;;;;8.27;4.53;;;;;;;;;;6216878;28;20025;-76
2023/07/03 06:39:23;;;;;;;7.20;3.72;;;;;;;;;;6216382;28;20021;-76
2023/07/03 06:42:24;;;;;;;7.67;4.10;;;;;;;;;;6217256;28;20018;-80
2023/07/03 06:45:24;;;;;;;7.33;4.57;;;;;;;;;;6212684;28;20476;-81
2023/07/03 06:48:24;;;;;;;9.23;3.97;;;;;;;;;;6216405;28;20704;-79
2023/07/03 06:51:24;;;;;;;11.75;4.72;;;;;;;;;;6217175;28;20037;-79
2023/07/03 06:54:25;;;;;;;7.17;3.93;;;;;;;;;;6218710;28;20088;-81
2023/07/03 06:57:25;;;;;;;7.93;3.93;;;;;;;;;;6212758;28;20032;-80
2023/07/03 07:00:25;;;;;;;7.63;3.80;;;;;;;;;;6198061;28;20033;-81
2023/07/03 07:03:25;;;;;;;4.60;3.40;;;;;;;;;;6212563;28;20029;-80
2023/07/03 07:06:29;;;;;;;5.37;3.50;;;;;;;;;;6216738;28;20018;-81
2023/07/03 07:09:30;;;;;;;6.57;3.00;;;;;;;;;;6211307;28;20488;-80
2023/07/03 07:12:30;;;;;;;7.22;3.45;;;;;;;;;;6214479;28;20027;-81
2023/07/03 07:15:35;;;;;;;6.67;3.57;;;;;;;;;;6221893;28;20022;-81
2023/07/03 07:18:35;;;;;;;4.40;2.88;;;;;;;;;;6219207;28;20447;-81
2023/07/03 07:21:38;;;;;;;6.90;2.87;;;;;;;;;;6219315;28;20022;-81
2023/07/03 07:24:38;;;;;;;4.20;2.72;;;;;;;;;;6220578;28;20105;-76
2023/07/03 07:27:38;;;;;;;3.87;2.67;;;;;;;;;;6220438;28;20022;-76
2023/07/03 07:30:38;;;;;;;6.53;3.37;;;;;;;;;;6220076;28;20511;-77
2023/07/03 07:33:38;;;;;;;4.90;3.10;;;;;;;;;;6222617;28;20093;-76
2023/07/03 07:36:39;;;;;;;6.57;3.28;;;;;;;;;;6202967;28;20623;-76
2023/07/03 07:39:43;;;;;;;4.30;2.67;;;;;;;;;;6213163;28;20036;-76
2023/07/03 07:42:43;;;;;;;5.57;3.47;;;;;;;;;;6216093;28;20034;-76
2023/07/03 07:45:51;;;;;;;5.77;3.10;;;;;;;;;;6218102;28;20563;-76
2023/07/03 07:48:51;;;;;;;6.00;3.53;;;;;;;;;;6214778;28;20495;-76
2023/07/03 07:51:51;;;;;;;6.13;3.10;;;;;;;;;;6215545;28;20002;-80
2023/07/03 07:54:55;;;;;;;5.60;3.50;;;;;;;;;;6220067;28;20022;-80
2023/07/03 07:57:55;;;;;;;7.38;3.53;;;;;;;;;;6202726;28;20025;-79
2023/07/03 08:00:58;;;;;;;6.70;3.50;;;;;;;;;;6217649;28;20073;-79
2023/07/03 08:03:58;;;;;;;7.75;3.28;;;;;;;;;;6214251;28;20029;-79
2023/07/03 08:06:59;;;;;;;6.33;3.47;;;;;;;;;;6214017;28;20081;-80
2023/07/03 08:10:00;;;;;;;5.85;2.97;;;;;;;;;;6220255;28;20025;-80
2023/07/03 08:13:01;;;;;;;7.80;3.70;;;;;;;;;;6219751;28;20014;-80
2023/07/03 08:16:01;;;;;;;5.15;3.08;;;;;;;;;;6202454;28;20443;-81
2023/07/03 08:19:02;;;;;;;9.07;3.50;;;;;;;;;;6219921;28;20092;-80
2023/07/03 08:22:02;;;;;;;8.75;4.95;;;;;;;;;;6220404;28;20249;-80
2023/07/03 08:25:03;;;;;;;9.53;5.07;;;;;;;;;;6219720;28;20120;-80
2023/07/03 08:28:04;;;;;;;9.07;5.03;;;;;;;;;;6218551;28;20524;-79
2023/07/03 08:31:04;;;;;;;9.50;4.97;;;;;;;;;;6218602;28;20361;-80
2023/07/03 08:34:04;;;;;;;10.57;4.95;;;;;;;;;;6201466;28;20033;-78
2023/07/03 08:37:05;;;;;;;11.45;5.82;;;;;;;;;;6219738;28;20025;-81
2023/07/03 08:40:07;;;;;;;11.82;6.00;;;;;;;;;;6219827;28;20022;-81
2023/07/03 08:43:09;;;;;;;13.50;6.63;;;;;;;;;;6217995;28;20369;-75
2023/07/03 08:46:19;;;;;;;13.98;6.00;;;;;;;;;;6216429;28;20014;-75
2023/07/03 08:49:23;;;;;;;15.77;7.83;;;;;;;;;;6217380;28;20036;-74
2023/07/03 08:52:30;;;;;;;16.10;8.38;;;;;;;;;;6218583;28;20268;-75
2023/07/03 08:55:40;;;;;;;15.93;6.60;;;;;;;;;;6217527;28;20396;-77
2023/07/03 08:58:41;;;;;;;19.83;7.57;;;;;;;;;;6217337;28;20180;-75
2023/07/03 09:01:41;;;;;;;13.23;7.73;;;;;;;;;;6217372;28;20508;-74
2023/07/03 09:04:57;;;;;;;17.10;6.93;;;;;;;;;;6215112;28;20448;-82
2023/07/03 09:08:01;;;;;;;16.35;7.03;;;;;;;;;;6218435;28;20389;-81
2023/07/03 09:11:02;;;;;;;16.00;7.70;;;;;;;;;;6214488;28;20518;-79
2023/07/03 09:14:04;;;;;;;14.32;8.23;;;;;;;;;;6219202;28;20183;-81
2023/07/03 09:17:08;;;;;;;15.13;8.10;;;;;;;;;;6218417;28;20022;-82
2023/07/03 09:20:10;;;;;;;16.85;7.53;;;;;;;;;;6216634;28;20030;-81
2023/07/03 09:23:18;;;;;;;16.77;8.32;;;;;;;;;;6217906;28;20412;-81
2023/07/03 09:26:22;;;;;;;13.65;6.72;;;;;;;;;;6218184;28;20017;-81
2023/07/03 09:29:24;;;;;;;16.95;8.20;;;;;;;;;;6224695;28;20606;-80
2023/07/03 09:32:30;;;;;;;15.45;6.57;;;;;;;;;;6240235;28;20112;-82
2023/07/03 09:35:41;;;;;;;15.05;7.07;;;;;;;;;;6240543;28;20025;-82
2023/07/03 09:38:41;;;;;;;16.25;7.57;;;;;;;;;;6242703;28;20022;-83
2023/07/03 09:41:43;;;;;;;11.53;4.60;;;;;;;;;;6242405;28;20032;-84
2023/07/03 09:44:43;;;;;;;15.40;7.60;;;;;;;;;;6240865;28;20029;-80
2023/07/03 09:47:48;;;;;;;13.77;8.73;;;;;;;;;;6242096;28;20024;-81
2023/07/03 09:50:48;;;;;;;17.42;9.73;;;;;;;;;;6240392;28;20082;-86
2023/07/03 09:53:49;;;;;;;13.60;6.93;;;;;;;;;;6237317;28;20365;-84
2023/07/03 09:56:49;;;;;;;15.85;8.32;;;;;;;;;;6248675;28;20017;-81
2023/07/03 09:59:49;;;;;;;13.23;5.97;;;;;;;;;;6247959;28;20025;-84
2023/07/03 10:02:54;;;;;;;13.97;6.53;;;;;;;;;;6247830;28;20021;-75
2023/07/03 10:05:55;;;;;;;15.27;7.28;;;;;;;;;;6242140;28;20017;-74
2023/07/03 10:08:58;;;;;;;13.40;6.63;;;;;;;;;;6242083;28;20025;-75
2023/07/03 10:12:09;;;;;;;14.82;7.70;;;;;;;;;;6235036;28;20010;-74
2023/07/03 10:15:24;;;;;;;13.97;7.53;;;;;;;;;;6237567;28;20049;-74
2023/07/03 10:18:26;;;;;;;17.52;8.60;;;;;;;;;;6241056;28;20029;-75
2023/07/03 10:21:27;;;;;;;16.17;8.60;;;;;;;;;;6242473;28;20031;-75
2023/07/03 10:24:27;;;;;;;17.23;7.23;;;;;;;;;;6243252;28;20738;-75
2023/07/03 10:27:28;;;;;;;16.87;6.90;;;;;;;;;;6241172;28;20109;-74
2023/07/03 10:30:31;;;;;;;15.35;7.95;;;;;;;;;;6217666;28;20119;-74
2023/07/03 10:33:35;;;;;;;13.98;8.15;;;;;;;;;;6199626;28;20447;-75
2023/07/03 10:36:35;;;;;;;19.95;7.45;;;;;;;;;;6212572;28;20026;-74
2023/07/03 10:39:44;;;;;;;16.07;8.57;;;;;;;;;;6217456;28;20421;-75
2023/07/03 10:42:47;;;;;;;17.27;8.65;;;;;;;;;;6216905;28;20348;-83
2023/07/03 10:45:47;;;;;;;14.85;7.90;;;;;;;;;;6196026;28;20401;-85
2023/07/03 10:48:48;;;;;;;17.50;7.87;;;;;;;;;;6222155;28;20018;-85
2023/07/03 10:52:18;;;;;;;17.65;8.73;;;;;;;;;;6220413;28;20025;-82
2023/07/03 10:55:22;;;;;;;15.25;8.23;;;;;;;;;;6152325;28;20022;-75
2023/07/03 10:58:22;;;;;;;15.23;7.65;;;;;;;;;;6221262;28;20392;-75
2023/07/03 11:01:34;;;;;;;12.47;7.97;;;;;;;;;;6218926;28;20014;-74
2023/07/03 11:04:35;;;;;;;;;;;;;;;;;;6203425;28;21162;-75
2023/07/03 11:07:40;;;;;;;17.20;8.77;;;;;;;;;;6221061;28;19952;-75
2023/07/03 11:10:48;;;;;;;15.65;6.35;;;;;;;;;;6221413;28;20037;-75
2023/07/03 11:13:57;;;;;;;15.35;7.43;;;;;;;;;;6220113;28;20029;-75
2023/07/03 11:17:06;;;;;;;15.88;8.40;;;;;;;;;;6221957;28;20097;-75
2023/07/03 11:20:12;;;;;;;16.63;7.35;;;;;;;;;;6220919;28;20026;-75
2023/07/03 11:23:31;;;;;;;17.08;8.20;;;;;;;;;;6220391;28;20084;-75
2023/07/03 11:26:36;;;;;;;15.15;7.30;;;;;;;;;;6215562;28;20129;-74
2023/07/03 11:29:36;;;;;;;14.55;7.03;;;;;;;;;;6220916;28;20061;-75
2023/07/03 11:32:37;;;;;;;15.63;8.70;;;;;;;;;;6220418;28;20457;-75
2023/07/03 11:35:49;;;;;;;13.43;7.70;;;;;;;;;;6220800;28;20428;-75
2023/07/03 11:39:09;;;;;;;14.60;6.68;;;;;;;;;;6214897;28;20279;-75
2023/07/03 11:42:10;;;;;;;13.15;7.07;;;;;;;;;;6212479;28;20021;-84
2023/07/03 11:45:24;;;;;;;14.10;7.78;;;;;;;;;;6221734;28;20033;-85
2023/07/03 11:48:28;;;;;;;14.85;7.28;;;;;;;;;;6220743;28;20033;-85
2023/07/03 11:51:30;;;;;;;14.07;7.95;;;;;;;;;;6218620;28;20065;-86
2023/07/03 11:54:32;;;;;;;15.48;8.27;;;;;;;;;;6220302;28;20607;-87
2023/07/03 11:57:34;;;;;;;15.52;7.55;;;;;;;;;;6221426;28;20025;-86
2023/07/03 12:00:35;;;;;;;10.10;5.38;;;;;;;;;;6220905;28;20065;-85
2023/07/03 12:03:52;;;;;;;9.07;5.03;;;;;;;;;;6220587;28;20030;-85
2023/07/03 12:06:52;;;;;;;18.85;6.93;;;;;;;;;;6220211;28;20481;-83
2023/07/03 12:09:52;;;;;;;10.10;6.43;;;;;;;;;;6221776;28;20049;-87
2023/07/03 12:13:11;;;;;;;9.63;5.50;;;;;;;;;;6216118;28;20048;-88
2023/07/03 12:16:18;;;;;;;16.10;8.48;;;;;;;;;;6216891;28;20038;-82
2023/07/03 12:19:19;;;;;;;14.75;6.38;;;;;;;;;;6217077;28;20487;-85
2023/07/03 12:22:20;;;;;;;13.07;6.40;;;;;;;;;;6209982;28;20119;-88
2023/07/03 12:25:22;;;;;;;9.70;6.05;;;;;;;;;;6197574;28;20053;-87
2023/07/03 12:28:22;;;;;;;16.15;7.05;;;;;;;;;;6214202;28;20060;-86
2023/07/03 12:31:22;;;;;;;12.67;8.10;;;;;;;;;;6210558;28;20018;-90
2023/07/03 12:34:24;;;;;;;15.10;8.95;;;;;;;;;;6208113;28;20044;-84
2023/07/03 12:37:25;;;;;;;12.75;6.45;;;;;;;;;;6215485;28;20033;-86
2023/07/03 12:40:26;;;;;;;12.98;5.78;;;;;;;;;;6219380;28;20457;-84
2023/07/03 12:43:26;;;;;;;12.20;5.77;;;;;;;;;;6219693;28;20030;-85
2023/07/03 12:46:34;;;;;;;14.48;5.88;;;;;;;;;;6224420;28;20683;-84
2023/07/03 12:49:46;;;;;;;14.00;7.18;;;;;;;;;;6224345;28;20464;-83
2023/07/03 12:52:55;;;;;;;13.55;8.07;;;;;;;;;;6217086;28;20057;-75
2023/07/03 12:55:58;;;;;;;12.70;5.38;;;;;;;;;;6215459;28;20057;-75
2023/07/03 12:58:58;;;;;;;11.25;5.18;;;;;;;;;;6215787;28;20049;-75
2023/07/03 13:01:59;;;;;;;15.13;6.78;;;;;;;;;;6214973;28;20030;-75
2023/07/03 13:05:00;;;;;;;15.05;7.03;;;;;;;;;;6218263;28;20140;-75
2023/07/03 13:08:03;;;;;;;12.43;6.65;;;;;;;;;;6219160;28;20465;-74
2023/07/03 13:11:05;;;;;;;14.32;6.78;;;;;;;;;;6214091;28;20030;-75
2023/07/03 13:14:19;;;;;;;13.07;7.57;;;;;;;;;;6223074;28;20021;-83
2023/07/03 13:17:26;;;;;;;14.55;8.30;;;;;;;;;;6220081;28;20060;-87
2023/07/03 13:20:28;;;;;;;12.38;7.25;;;;;;;;;;6220757;28;20030;-86
2023/07/03 13:23:28;;;;;;;;;;;;;;;;;;6222147;28;20472;-87
2023/07/03 13:26:28;;;;;;;13.10;5.95;;;;;;;;;;6220448;28;19906;-85
2023/07/03 13:29:28;;;;;;;;;;;;;;;;;;6215571;28;20053;-85
2023/07/03 13:32:28;;;;;;;10.82;5.80;;;;;;;;;;6219566;28;20031;-87
2023/07/03 13:35:28;;;;;;;;;;;;;;;;;;6215342;28;20018;-85
2023/07/03 13:38:30;;;;;;;11.30;6.03;;;;;;;;;;6220697;28;19917;-85
2023/07/03 13:41:31;;;;;;;13.05;6.07;;;;;;;;;;6220621;28;20026;-84
2023/07/03 13:44:33;;;;;;;14.80;7.10;;;;;;;;;;6222608;28;20018;-85
2023/07/03 13:47:33;;;;;;;11.07;5.82;;;;;;;;;;6219812;28;20044;-88
2023/07/03 13:50:33;;;;;;;9.50;5.13;;;;;;;;;;6220166;28;20026;-84
2023/07/03 13:53:34;;;;;;;11.60;5.70;;;;;;;;;;6217147;28;20348;-84
2023/07/03 13:56:36;;;;;;;13.82;6.85;;;;;;;;;;6223410;28;20022;-88
2023/07/03 13:59:36;;;;;;;11.60;6.82;;;;;;;;;;6222547;28;20023;-85
2023/07/03 14:02:36;;;;;;;;;;;;;;;;;;6228297;28;20052;-89
2023/07/03 14:05:36;;;;;;;9.80;5.53;;;;;;;;;;6221596;28;19928;-85
2023/07/03 14:08:37;;;;;;;;;;;;;;;;;;6219474;28;20578;-85
2023/07/03 14:11:37;;;;;;;12.57;6.30;;;;;;;;;;6216211;28;19914;-85
2023/07/03 14:14:37;;;;;;;12.30;6.23;;;;;;;;;;6227541;28;20026;-80
2023/07/03 14:17:37;;;;;;;;;;;;;;;;;;6226563;28;20033;-88
2023/07/03 14:20:37;;;;;;;15.02;6.60;;;;;;;;;;6226459;28;20253;-86
2023/07/03 14:23:40;;;;;;;9.48;5.30;;;;;;;;;;6205352;28;20105;-82
2023/07/03 14:26:41;;;;;;;12.80;7.13;;;;;;;;;;6222983;28;20113;-85
2023/07/03 14:29:41;;;;;;;12.43;5.47;;;;;;;;;;6224797;28;20052;-85
2023/07/03 14:32:41;;;;;;;12.13;5.93;;;;;;;;;;6226743;28;20273;-86
2023/07/03 14:35:42;;;;;;;11.48;5.93;;;;;;;;;;6225113;28;20028;-81
2023/07/03 14:38:43;;;;;;;10.15;6.22;;;;;;;;;;6209085;28;20781;-84
2023/07/03 14:41:43;;;;;;;13.55;6.13;;;;;;;;;;6225545;28;20085;-85
2023/07/03 14:44:43;;;;;;;13.07;5.17;;;;;;;;;;6233671;28;20025;-88
2023/07/03 14:47:43;;;;;;;10.40;6.10;;;;;;;;;;6233484;28;20032;-86
2023/07/03 14:50:43;;;;;;;;;;;;;;;;;;6216049;28;20261;-85
2023/07/03 14:53:44;;;;;;;13.52;6.88;;;;;;;;;;6231873;28;19956;-84
2023/07/03 14:56:44;;;;;;;;;;;;;;;;;;6230416;28;20519;-82
2023/07/03 14:59:44;;;;;;;10.73;5.95;;;;;;;;;;6232340;28;19953;-84
2023/07/03 15:02:48;;;;;;;11.38;6.53;;;;;;;;;;6233425;28;20113;-84
2023/07/03 15:05:48;;;;;;;16.23;8.02;;;;;;;;;;6234765;28;20439;-85
2023/07/03 15:08:48;;;;;;;;;;;;;;;;;;6239688;28;20029;-86
2023/07/03 15:11:48;;;;;;;15.55;6.32;;;;;;;;;;6235347;28;19894;-84
2023/07/03 15:14:49;;;;;;;;;;;;;;;;;;6232863;28;20022;-85
2023/07/03 15:17:50;;;;;;;11.40;6.28;;;;;;;;;;6222170;28;19910;-86
2023/07/03 15:20:50;;;;;;;12.45;5.88;;;;;;;;;;6225876;28;20029;-85
2023/07/03 15:23:50;;;;;;;;;;;;;;;;;;6225004;28;20478;-81
2023/07/03 15:26:51;;;;;;;12.95;6.78;;;;;;;;;;6226168;28;20296;-86
2023/07/03 15:29:51;;;;;;;11.05;5.03;;;;;;;;;;6192562;28;1377433;-84
2023/07/03 15:32:52;;;;;;;;;;;;;;;;;;6239941;28;20010;-77
2023/07/03 15:35:53;;;;;;;13.10;7.07;;;;;;;;;;6219935;28;19988;-84
2023/07/03 15:38:53;;;;;;;10.43;6.18;;;;;;;;;;6227626;28;20014;-87
2023/07/03 15:41:53;;;;;;;;;;;;;;;;;;6226898;28;20052;-86
2023/07/03 15:44:55;;;;;;;11.50;6.90;;;;;;;;;;6224789;28;19910;-87
2023/07/03 15:47:55;;;;;;;13.75;6.90;;;;;;;;;;6217133;28;20022;-85
2023/07/03 15:50:56;;;;;;;13.03;6.87;;;;;;;;;;6238034;28;20060;-82
2023/07/03 15:53:56;;;;;;;12.98;6.63;;;;;;;;;;6231046;28;20283;-80
2023/07/03 15:56:57;;;;;;;11.13;6.10;;;;;;;;;;6232697;28;20025;-86
2023/07/03 15:59:57;;;;;;;13.03;7.13;;;;;;;;;;6221433;28;20559;-84
2023/07/03 16:02:57;;;;;;;16.87;6.77;;;;;;;;;;6219905;28;20040;-84
2023/07/03 16:05:58;;;;;;;13.20;6.18;;;;;;;;;;6228112;28;20034;-85
2023/07/03 16:08:59;;;;;;;13.10;6.35;;;;;;;;;;6226294;28;20018;-85
2023/07/03 16:11:59;;;;;;;11.93;6.32;;;;;;;;;;6226485;28;20014;-86
2023/07/03 16:14:59;;;;;;;11.98;6.53;;;;;;;;;;6227688;28;20029;-86
2023/07/03 16:17:59;;;;;;;12.30;6.37;;;;;;;;;;6219434;28;20098;-84
2023/07/03 16:21:00;;;;;;;9.27;5.87;;;;;;;;;;6228465;28;20029;-83
2023/07/03 16:24:01;;;;;;;14.07;6.25;;;;;;;;;;6230209;28;20026;-86
2023/07/03 16:27:03;;;;;;;14.10;5.75;;;;;;;;;;6225508;28;20050;-83
2023/07/03 16:30:04;;;;;;;10.70;6.78;;;;;;;;;;6220500;28;20069;-84
2023/07/03 16:33:04;;;;;;;15.57;7.50;;;;;;;;;;6203053;28;20033;-75
2023/07/03 16:36:08;;;;;;;12.85;6.18;;;;;;;;;;6219891;28;20399;-75
2023/07/03 16:39:08;;;;;;;12.18;6.18;;;;;;;;;;6217380;28;20018;-75
2023/07/03 16:42:09;;;;;;;10.68;6.32;;;;;;;;;;6219778;28;20094;-85
2023/07/03 16:45:09;;;;;;;14.37;6.67;;;;;;;;;;6224031;28;20018;-84
2023/07/03 16:48:09;;;;;;;10.48;5.32;;;;;;;;;;6227405;28;20428;-87
2023/07/03 16:51:11;;;;;;;14.63;6.57;;;;;;;;;;6228041;28;20069;-88
2023/07/03 16:54:11;;;;;;;14.40;7.18;;;;;;;;;;6227920;28;20014;-85
2023/07/03 16:57:12;;;;;;;10.73;5.50;;;;;;;;;;6231421;28;20491;-84
2023/07/03 17:00:12;;;;;;;11.90;6.43;;;;;;;;;;6230093;28;20026;-85
2023/07/03 17:03:12;;;;;;;12.82;7.30;;;;;;;;;;6233813;28;20068;-83
2023/07/03 17:06:20;;;;;;;11.17;6.53;;;;;;;;;;6228876;28;20018;-83
2023/07/03 17:09:21;;;;;;;15.40;8.00;;;;;;;;;;6234379;28;20018;-87
2023/07/03 17:12:21;;;;;;;13.32;7.47;;;;;;;;;;6215650;28;20500;-86
2023/07/03 17:15:21;;;;;;;12.63;6.45;;;;;;;;;;6234001;28;20026;-85
2023/07/03 17:18:22;;;;;;;23.77;9.10;;;;;;;;;;6233503;28;20033;-86
2023/07/03 17:21:22;;;;;;;30.67;10.65;;;;;;;;;;6231502;28;20029;-84
2023/07/03 17:24:23;;;;;;;12.23;6.13;;;;;;;;;;6232406;28;20021;-85
2023/07/03 17:27:23;;;;;;;13.98;6.90;;;;;;;;;;6226884;28;20464;-82
2023/07/03 17:30:23;;;;;;;12.20;5.97;;;;;;;;;;6231336;28;20053;-84
2023/07/03 17:33:24;;;;;;;10.93;6.90;;;;;;;;;;6235675;28;20026;-82
2023/07/03 17:36:24;;;;;;;12.50;6.30;;;;;;;;;;6234692;28;20267;-83
2023/07/03 17:39:24;;;;;;;12.57;5.93;;;;;;;;;;6238695;28;20287;-83
2023/07/03 17:42:25;;;;;;;13.18;6.55;;;;;;;;;;6237940;28;20257;-84
2023/07/03 17:45:26;;;;;;;;;;;;;;;;;;6237084;28;20088;-83
2023/07/03 17:48:26;;;;;;;12.87;6.53;;;;;;;;;;6240538;28;19913;-80
2023/07/03 17:51:32;;;;;;;;;;;;;;;;;;6240948;28;20013;-86
2023/07/03 17:54:34;;;;;;;13.05;6.63;;;;;;;;;;6236356;28;19909;-84
2023/07/03 17:57:34;;;;;;;13.65;6.38;;;;;;;;;;6218665;28;20037;-84
2023/07/03 18:00:35;;;;;;;15.30;7.43;;;;;;;;;;6235249;28;20050;-80
2023/07/03 18:03:35;;;;;;;13.03;5.87;;;;;;;;;;6237965;28;20048;-81